Griston, United Kingdom
Current Conditions -  °F | °C
As of 11:32 AM on Friday 24 Oct 2014 (Local Time) from EGYM Reporting Station
Broken Clouds Broken Clouds  
Wind Chill: 61°   Ceiling: 8000
Heat Index: 61°   Visibility: 6mi
Dew Point: 55°   Wind: 13mph
Humidity: 82%   Direction: 210°SSW
Pressure: 29.91"   Gusts: NA
Location:  52.56°N, 0.86°E
Report Text: EGYM 241032Z 21011KT 9999 FEW015 BKN080 16/13 Q1013 BLU TEMO SCT015 WHT
Loading
Personal Weather Stations






























Interactive Weather Map
Tropical Storm Tracking
New forecast layout! Learn more

10-Day Weather Forecast

Advertisements
Track Severe Weather on mobile